Terminal Aerodrome Forecast
Issued by NWS Northern Indiana

Home | Current Version | Previous Version | Text Only | Print | Product List | Glossary Off
Versions: 1 2 3 4 5 6 7 8 9 10 11 12 13

000
FTUS43 KIWX 301335 AAA
TAFFWA
TAF AMD
KFWA 301335Z 3014/0112 27003KT 5SM BR OVC007
     FM301600 26005KT P6SM SCT250
     FM302100 25008KT P6SM BKN040=

USA.gov is the U.S. government's official web portal to all federal, state and local government web resources and services.